sensor_id;sensor_type;location;lat;lon;timestamp;P1;durP1;ratioP1;P2;durP2;ratioP2
75890;SDS011;64571;47.512;19.054;2022-10-31T00:01:18;59.65;;;26.17;;
75890;SDS011;64571;47.512;19.054;2022-10-31T00:04:30;59.80;;;25.60;;
75890;SDS011;64571;47.512;19.054;2022-10-31T00:07:32;67.70;;;26.77;;
75890;SDS011;64571;47.512;19.054;2022-10-31T00:10:37;56.55;;;24.73;;
75890;SDS011;64571;47.512;19.054;2022-10-31T00:13:43;62.80;;;27.30;;
75890;SDS011;64571;47.512;19.054;2022-10-31T00:16:45;63.97;;;26.37;;
75890;SDS011;64571;47.512;19.054;2022-10-31T00:19:47;63.30;;;26.27;;
75890;SDS011;64571;47.512;19.054;2022-10-31T00:22:50;69.55;;;28.25;;
75890;SDS011;64571;47.512;19.054;2022-10-31T00:25:52;66.45;;;26.62;;
75890;SDS011;64571;47.512;19.054;2022-10-31T00:28:55;65.75;;;26.87;;
75890;SDS011;64571;47.512;19.054;2022-10-31T00:31:57;70.90;;;26.70;;
75890;SDS011;64571;47.512;19.054;2022-10-31T00:35:00;65.47;;;27.07;;
75890;SDS011;64571;47.512;19.054;2022-10-31T00:38:02;58.63;;;26.55;;
75890;SDS011;64571;47.512;19.054;2022-10-31T00:41:05;57.90;;;25.37;;
75890;SDS011;64571;47.512;19.054;2022-10-31T00:44:07;58.90;;;25.02;;
75890;SDS011;64571;47.512;19.054;2022-10-31T00:47:09;63.53;;;24.50;;
75890;SDS011;64571;47.512;19.054;2022-10-31T00:50:12;62.17;;;25.40;;
75890;SDS011;64571;47.512;19.054;2022-10-31T00:53:15;62.42;;;26.05;;
75890;SDS011;64571;47.512;19.054;2022-10-31T00:56:17;51.60;;;23.15;;
75890;SDS011;64571;47.512;19.054;2022-10-31T00:59:20;57.15;;;25.15;;
75890;SDS011;64571;47.512;19.054;2022-10-31T01:02:22;69.25;;;27.48;;
75890;SDS011;64571;47.512;19.054;2022-10-31T01:05:25;66.63;;;28.13;;
75890;SDS011;64571;47.512;19.054;2022-10-31T01:08:27;69.10;;;26.25;;
75890;SDS011;64571;47.512;19.054;2022-10-31T01:11:30;65.95;;;25.88;;
75890;SDS011;64571;47.512;19.054;2022-10-31T01:14:33;65.93;;;26.48;;
75890;SDS011;64571;47.512;19.054;2022-10-31T01:17:35;65.47;;;25.75;;
75890;SDS011;64571;47.512;19.054;2022-10-31T01:20:37;68.77;;;25.93;;
75890;SDS011;64571;47.512;19.054;2022-10-31T01:23:40;67.18;;;25.98;;
75890;SDS011;64571;47.512;19.054;2022-10-31T01:26:43;66.15;;;25.30;;
75890;SDS011;64571;47.512;19.054;2022-10-31T01:29:45;66.15;;;25.52;;
75890;SDS011;64571;47.512;19.054;2022-10-31T01:32:47;66.07;;;26.08;;
75890;SDS011;64571;47.512;19.054;2022-10-31T01:35:50;67.43;;;26.23;;
75890;SDS011;64571;47.512;19.054;2022-10-31T01:38:54;77.95;;;25.52;;
75890;SDS011;64571;47.512;19.054;2022-10-31T01:41:58;75.87;;;26.58;;
75890;SDS011;64571;47.512;19.054;2022-10-31T01:45:01;66.85;;;24.37;;
75890;SDS011;64571;47.512;19.054;2022-10-31T01:48:04;63.67;;;24.45;;
75890;SDS011;64571;47.512;19.054;2022-10-31T01:51:12;61.67;;;25.03;;
75890;SDS011;64571;47.512;19.054;2022-10-31T01:54:18;67.00;;;25.00;;
75890;SDS011;64571;47.512;19.054;2022-10-31T01:57:24;60.70;;;23.55;;
75890;SDS011;64571;47.512;19.054;2022-10-31T02:00:28;55.75;;;21.17;;
75890;SDS011;64571;47.512;19.054;2022-10-31T02:03:31;51.95;;;21.95;;
75890;SDS011;64571;47.512;19.054;2022-10-31T02:06:38;55.70;;;21.23;;
75890;SDS011;64571;47.512;19.054;2022-10-31T02:09:46;52.58;;;20.73;;
75890;SDS011;64571;47.512;19.054;2022-10-31T02:12:51;48.13;;;19.58;;
75890;SDS011;64571;47.512;19.054;2022-10-31T02:15:58;50.60;;;19.98;;
75890;SDS011;64571;47.512;19.054;2022-10-31T02:19:00;48.75;;;19.60;;
75890;SDS011;64571;47.512;19.054;2022-10-31T02:45:30;33.05;;;14.77;;
75890;SDS011;64571;47.512;19.054;2022-10-31T02:48:36;38.67;;;15.93;;
75890;SDS011;64571;47.512;19.054;2022-10-31T02:51:41;33.83;;;15.77;;
75890;SDS011;64571;47.512;19.054;2022-10-31T02:54:45;36.07;;;15.90;;
75890;SDS011;64571;47.512;19.054;2022-10-31T02:57:49;36.95;;;16.85;;
75890;SDS011;64571;47.512;19.054;2022-10-31T03:07:37;35.17;;;15.88;;
75890;SDS011;64571;47.512;19.054;2022-10-31T03:11:09;31.33;;;15.60;;
75890;SDS011;64571;47.512;19.054;2022-10-31T03:14:15;36.60;;;15.55;;
75890;SDS011;64571;47.512;19.054;2022-10-31T03:17:26;36.13;;;15.27;;
75890;SDS011;64571;47.512;19.054;2022-10-31T03:20:58;35.85;;;16.10;;
75890;SDS011;64571;47.512;19.054;2022-10-31T03:24:09;37.20;;;15.85;;
75890;SDS011;64571;47.512;19.054;2022-10-31T03:27:15;34.67;;;16.10;;
75890;SDS011;64571;47.512;19.054;2022-10-31T03:30:24;35.85;;;15.48;;
75890;SDS011;64571;47.512;19.054;2022-10-31T03:33:28;30.60;;;14.50;;
75890;SDS011;64571;47.512;19.054;2022-10-31T03:36:34;35.55;;;15.13;;
75890;SDS011;64571;47.512;19.054;2022-10-31T03:39:40;31.25;;;15.25;;
75890;SDS011;64571;47.512;19.054;2022-10-31T03:42:46;34.47;;;14.77;;
75890;SDS011;64571;47.512;19.054;2022-10-31T03:45:56;32.05;;;14.18;;
75890;SDS011;64571;47.512;19.054;2022-10-31T03:49:00;33.53;;;14.50;;
75890;SDS011;64571;47.512;19.054;2022-10-31T03:52:13;37.60;;;15.18;;
75890;SDS011;64571;47.512;19.054;2022-10-31T03:55:40;33.28;;;14.73;;
75890;SDS011;64571;47.512;19.054;2022-10-31T03:58:55;31.10;;;14.13;;
75890;SDS011;64571;47.512;19.054;2022-10-31T04:02:05;34.83;;;14.60;;
75890;SDS011;64571;47.512;19.054;2022-10-31T04:05:13;34.60;;;14.90;;
75890;SDS011;64571;47.512;19.054;2022-10-31T04:08:20;39.13;;;15.82;;
75890;SDS011;64571;47.512;19.054;2022-10-31T04:11:29;35.80;;;14.68;;
75890;SDS011;64571;47.512;19.054;2022-10-31T04:14:40;44.20;;;16.17;;
75890;SDS011;64571;47.512;19.054;2022-10-31T04:17:45;39.60;;;16.02;;
75890;SDS011;64571;47.512;19.054;2022-10-31T04:20:58;39.17;;;15.23;;
75890;SDS011;64571;47.512;19.054;2022-10-31T04:24:06;39.85;;;14.93;;
75890;SDS011;64571;47.512;19.054;2022-10-31T04:27:08;34.03;;;14.65;;
75890;SDS011;64571;47.512;19.054;2022-10-31T04:30:11;37.17;;;16.23;;
75890;SDS011;64571;47.512;19.054;2022-10-31T04:33:14;35.15;;;15.45;;
75890;SDS011;64571;47.512;19.054;2022-10-31T04:36:17;42.62;;;17.42;;
75890;SDS011;64571;47.512;19.054;2022-10-31T04:39:19;48.70;;;17.58;;
75890;SDS011;64571;47.512;19.054;2022-10-31T04:42:29;40.60;;;16.20;;
75890;SDS011;64571;47.512;19.054;2022-10-31T04:45:32;38.60;;;15.50;;
75890;SDS011;64571;47.512;19.054;2022-10-31T04:48:35;45.08;;;16.75;;
75890;SDS011;64571;47.512;19.054;2022-10-31T04:51:38;43.22;;;17.05;;
75890;SDS011;64571;47.512;19.054;2022-10-31T04:54:42;42.10;;;16.65;;
75890;SDS011;64571;47.512;19.054;2022-10-31T04:57:49;38.47;;;16.17;;
75890;SDS011;64571;47.512;19.054;2022-10-31T05:00:53;44.13;;;16.80;;
75890;SDS011;64571;47.512;19.054;2022-10-31T05:03:56;42.80;;;16.52;;
75890;SDS011;64571;47.512;19.054;2022-10-31T05:06:59;45.35;;;17.25;;
75890;SDS011;64571;47.512;19.054;2022-10-31T05:10:01;42.75;;;17.52;;
75890;SDS011;64571;47.512;19.054;2022-10-31T05:13:04;43.67;;;18.17;;
75890;SDS011;64571;47.512;19.054;2022-10-31T05:16:08;48.70;;;17.63;;
75890;SDS011;64571;47.512;19.054;2022-10-31T05:19:13;47.78;;;18.10;;
75890;SDS011;64571;47.512;19.054;2022-10-31T05:22:17;42.90;;;16.95;;
75890;SDS011;64571;47.512;19.054;2022-10-31T05:25:20;44.63;;;16.80;;
75890;SDS011;64571;47.512;19.054;2022-10-31T05:28:24;44.47;;;16.67;;
75890;SDS011;64571;47.512;19.054;2022-10-31T05:31:27;44.80;;;17.17;;
75890;SDS011;64571;47.512;19.054;2022-10-31T05:34:30;45.65;;;18.17;;
75890;SDS011;64571;47.512;19.054;2022-10-31T05:37:35;47.25;;;16.45;;
75890;SDS011;64571;47.512;19.054;2022-10-31T05:40:38;42.47;;;16.37;;
75890;SDS011;64571;47.512;19.054;2022-10-31T05:43:40;43.90;;;17.25;;
75890;SDS011;64571;47.512;19.054;2022-10-31T05:46:45;44.77;;;16.87;;
75890;SDS011;64571;47.512;19.054;2022-10-31T05:49:50;40.03;;;16.00;;
75890;SDS011;64571;47.512;19.054;2022-10-31T05:53:03;44.85;;;15.85;;
75890;SDS011;64571;47.512;19.054;2022-10-31T05:56:08;43.03;;;16.45;;
75890;SDS011;64571;47.512;19.054;2022-10-31T05:59:10;47.30;;;17.35;;
75890;SDS011;64571;47.512;19.054;2022-10-31T06:02:13;37.07;;;15.73;;
75890;SDS011;64571;47.512;19.054;2022-10-31T06:05:25;42.17;;;16.15;;
75890;SDS011;64571;47.512;19.054;2022-10-31T06:08:27;41.50;;;15.77;;
75890;SDS011;64571;47.512;19.054;2022-10-31T06:11:30;35.58;;;15.35;;
75890;SDS011;64571;47.512;19.054;2022-10-31T06:14:44;45.03;;;16.58;;
75890;SDS011;64571;47.512;19.054;2022-10-31T06:17:46;39.27;;;14.97;;
75890;SDS011;64571;47.512;19.054;2022-10-31T06:20:50;40.35;;;16.48;;
75890;SDS011;64571;47.512;19.054;2022-10-31T06:23:53;45.72;;;16.80;;
75890;SDS011;64571;47.512;19.054;2022-10-31T06:26:56;39.60;;;15.45;;
75890;SDS011;64571;47.512;19.054;2022-10-31T06:29:58;44.42;;;16.87;;
75890;SDS011;64571;47.512;19.054;2022-10-31T06:33:04;38.23;;;15.10;;
75890;SDS011;64571;47.512;19.054;2022-10-31T06:36:09;37.53;;;15.88;;
75890;SDS011;64571;47.512;19.054;2022-10-31T06:39:12;41.67;;;15.00;;
75890;SDS011;64571;47.512;19.054;2022-10-31T06:42:15;39.13;;;15.52;;
75890;SDS011;64571;47.512;19.054;2022-10-31T06:45:17;37.53;;;15.80;;
75890;SDS011;64571;47.512;19.054;2022-10-31T06:48:22;36.03;;;15.67;;
75890;SDS011;64571;47.512;19.054;2022-10-31T06:51:29;39.45;;;15.85;;
75890;SDS011;64571;47.512;19.054;2022-10-31T06:54:32;42.38;;;15.05;;
75890;SDS011;64571;47.512;19.054;2022-10-31T06:57:34;36.38;;;14.27;;
75890;SDS011;64571;47.512;19.054;2022-10-31T07:00:37;36.88;;;15.10;;
75890;SDS011;64571;47.512;19.054;2022-10-31T07:03:40;39.10;;;14.73;;
75890;SDS011;64571;47.512;19.054;2022-10-31T07:06:42;38.40;;;15.10;;
75890;SDS011;64571;47.512;19.054;2022-10-31T07:09:52;39.00;;;14.07;;
75890;SDS011;64571;47.512;19.054;2022-10-31T07:12:56;34.92;;;14.05;;
75890;SDS011;64571;47.512;19.054;2022-10-31T07:16:06;38.03;;;15.40;;
75890;SDS011;64571;47.512;19.054;2022-10-31T07:19:10;39.13;;;16.00;;
75890;SDS011;64571;47.512;19.054;2022-10-31T07:22:12;36.75;;;15.18;;
75890;SDS011;64571;47.512;19.054;2022-10-31T07:25:15;40.10;;;14.77;;
75890;SDS011;64571;47.512;19.054;2022-10-31T07:28:32;36.03;;;15.68;;
75890;SDS011;64571;47.512;19.054;2022-10-31T07:31:35;39.40;;;16.20;;
75890;SDS011;64571;47.512;19.054;2022-10-31T07:34:37;42.33;;;15.97;;
75890;SDS011;64571;47.512;19.054;2022-10-31T07:37:48;40.97;;;16.33;;
75890;SDS011;64571;47.512;19.054;2022-10-31T07:40:51;34.45;;;15.48;;
75890;SDS011;64571;47.512;19.054;2022-10-31T07:43:55;38.90;;;15.40;;
75890;SDS011;64571;47.512;19.054;2022-10-31T07:47:00;38.28;;;15.93;;
75890;SDS011;64571;47.512;19.054;2022-10-31T07:50:05;37.70;;;15.67;;
75890;SDS011;64571;47.512;19.054;2022-10-31T07:53:13;37.22;;;15.70;;
75890;SDS011;64571;47.512;19.054;2022-10-31T07:56:19;37.08;;;15.25;;
75890;SDS011;64571;47.512;19.054;2022-10-31T07:59:21;37.42;;;15.15;;
75890;SDS011;64571;47.512;19.054;2022-10-31T08:02:24;36.58;;;15.00;;
75890;SDS011;64571;47.512;19.054;2022-10-31T08:05:32;37.77;;;15.20;;
75890;SDS011;64571;47.512;19.054;2022-10-31T08:08:37;31.00;;;14.40;;
75890;SDS011;64571;47.512;19.054;2022-10-31T08:11:40;36.65;;;13.90;;
75890;SDS011;64571;47.512;19.054;2022-10-31T08:14:42;35.05;;;14.60;;
75890;SDS011;64571;47.512;19.054;2022-10-31T08:17:45;37.05;;;15.60;;
75890;SDS011;64571;47.512;19.054;2022-10-31T08:20:47;34.93;;;14.93;;
75890;SDS011;64571;47.512;19.054;2022-10-31T08:23:49;39.47;;;14.10;;
75890;SDS011;64571;47.512;19.054;2022-10-31T08:26:53;34.95;;;14.05;;
75890;SDS011;64571;47.512;19.054;2022-10-31T08:29:56;34.13;;;13.98;;
75890;SDS011;64571;47.512;19.054;2022-10-31T08:33:02;37.13;;;15.57;;
75890;SDS011;64571;47.512;19.054;2022-10-31T08:36:14;39.13;;;16.50;;
75890;SDS011;64571;47.512;19.054;2022-10-31T08:39:17;42.60;;;15.50;;
75890;SDS011;64571;47.512;19.054;2022-10-31T08:42:20;39.38;;;15.55;;
75890;SDS011;64571;47.512;19.054;2022-10-31T08:45:22;35.33;;;16.45;;
75890;SDS011;64571;47.512;19.054;2022-10-31T08:48:25;36.67;;;16.37;;
75890;SDS011;64571;47.512;19.054;2022-10-31T08:51:27;39.17;;;17.17;;
75890;SDS011;64571;47.512;19.054;2022-10-31T08:54:30;40.28;;;16.85;;
75890;SDS011;64571;47.512;19.054;2022-10-31T08:57:37;42.95;;;17.25;;
75890;SDS011;64571;47.512;19.054;2022-10-31T09:00:40;42.47;;;16.17;;
75890;SDS011;64571;47.512;19.054;2022-10-31T09:03:43;41.92;;;15.90;;
75890;SDS011;64571;47.512;19.054;2022-10-31T09:06:46;38.33;;;16.03;;
75890;SDS011;64571;47.512;19.054;2022-10-31T09:10:08;53.10;;;20.08;;
75890;SDS011;64571;47.512;19.054;2022-10-31T09:13:12;51.37;;;19.15;;
75890;SDS011;64571;47.512;19.054;2022-10-31T09:16:18;55.38;;;20.25;;
75890;SDS011;64571;47.512;19.054;2022-10-31T09:19:21;55.67;;;19.73;;
75890;SDS011;64571;47.512;19.054;2022-10-31T09:22:23;50.57;;;20.17;;
75890;SDS011;64571;47.512;19.054;2022-10-31T09:25:27;54.50;;;19.83;;
75890;SDS011;64571;47.512;19.054;2022-10-31T09:28:32;53.28;;;18.83;;
75890;SDS011;64571;47.512;19.054;2022-10-31T09:31:35;50.05;;;18.25;;
75890;SDS011;64571;47.512;19.054;2022-10-31T09:34:46;50.60;;;17.60;;
75890;SDS011;64571;47.512;19.054;2022-10-31T09:37:55;53.10;;;19.97;;
75890;SDS011;64571;47.512;19.054;2022-10-31T09:44:39;50.20;;;17.02;;
75890;SDS011;64571;47.512;19.054;2022-10-31T09:54:32;41.77;;;17.53;;
75890;SDS011;64571;47.512;19.054;2022-10-31T09:57:40;46.63;;;16.83;;
75890;SDS011;64571;47.512;19.054;2022-10-31T10:00:44;46.58;;;17.12;;
75890;SDS011;64571;47.512;19.054;2022-10-31T10:03:49;48.35;;;17.80;;
75890;SDS011;64571;47.512;19.054;2022-10-31T10:07:02;44.10;;;17.67;;
75890;SDS011;64571;47.512;19.054;2022-10-31T10:20:31;46.28;;;17.42;;
75890;SDS011;64571;47.512;19.054;2022-10-31T10:24:01;46.88;;;19.00;;
75890;SDS011;64571;47.512;19.054;2022-10-31T10:31:23;42.78;;;17.10;;
75890;SDS011;64571;47.512;19.054;2022-10-31T10:34:31;49.80;;;19.35;;
75890;SDS011;64571;47.512;19.054;2022-10-31T10:37:39;43.60;;;17.62;;
75890;SDS011;64571;47.512;19.054;2022-10-31T10:40:45;40.55;;;17.92;;
75890;SDS011;64571;47.512;19.054;2022-10-31T10:43:49;43.87;;;18.53;;
75890;SDS011;64571;47.512;19.054;2022-10-31T10:46:54;48.70;;;18.98;;
75890;SDS011;64571;47.512;19.054;2022-10-31T10:50:22;43.85;;;18.48;;
75890;SDS011;64571;47.512;19.054;2022-10-31T10:57:08;43.30;;;18.17;;
75890;SDS011;64571;47.512;19.054;2022-10-31T11:00:38;41.43;;;17.67;;
75890;SDS011;64571;47.512;19.054;2022-10-31T11:03:43;39.13;;;17.45;;
75890;SDS011;64571;47.512;19.054;2022-10-31T11:06:45;41.15;;;17.52;;
75890;SDS011;64571;47.512;19.054;2022-10-31T11:10:03;43.10;;;18.12;;
75890;SDS011;64571;47.512;19.054;2022-10-31T11:13:22;43.80;;;17.70;;
75890;SDS011;64571;47.512;19.054;2022-10-31T11:19:28;36.78;;;16.20;;
75890;SDS011;64571;47.512;19.054;2022-10-31T11:22:30;43.33;;;16.87;;
75890;SDS011;64571;47.512;19.054;2022-10-31T11:25:33;37.38;;;16.80;;
75890;SDS011;64571;47.512;19.054;2022-10-31T11:28:35;36.22;;;16.90;;
75890;SDS011;64571;47.512;19.054;2022-10-31T11:31:38;41.70;;;16.70;;
75890;SDS011;64571;47.512;19.054;2022-10-31T11:34:44;35.58;;;16.55;;
75890;SDS011;64571;47.512;19.054;2022-10-31T11:37:49;37.00;;;17.80;;
75890;SDS011;64571;47.512;19.054;2022-10-31T11:40:57;33.67;;;16.48;;
75890;SDS011;64571;47.512;19.054;2022-10-31T11:44:11;38.47;;;15.43;;
75890;SDS011;64571;47.512;19.054;2022-10-31T11:47:15;31.97;;;14.27;;
75890;SDS011;64571;47.512;19.054;2022-10-31T11:50:23;33.42;;;16.02;;
75890;SDS011;64571;47.512;19.054;2022-10-31T11:53:32;31.75;;;15.50;;
75890;SDS011;64571;47.512;19.054;2022-10-31T11:56:39;31.23;;;15.48;;
75890;SDS011;64571;47.512;19.054;2022-10-31T11:59:49;34.70;;;16.02;;
75890;SDS011;64571;47.512;19.054;2022-10-31T12:06:29;28.60;;;14.68;;
75890;SDS011;64571;47.512;19.054;2022-10-31T12:09:36;30.55;;;14.50;;
75890;SDS011;64571;47.512;19.054;2022-10-31T12:12:49;35.40;;;14.93;;
75890;SDS011;64571;47.512;19.054;2022-10-31T12:15:55;35.08;;;15.48;;
75890;SDS011;64571;47.512;19.054;2022-10-31T12:19:05;30.77;;;15.37;;
75890;SDS011;64571;47.512;19.054;2022-10-31T12:32:34;32.03;;;14.13;;
75890;SDS011;64571;47.512;19.054;2022-10-31T12:35:48;29.23;;;14.37;;
75890;SDS011;64571;47.512;19.054;2022-10-31T12:42:24;31.95;;;14.57;;
75890;SDS011;64571;47.512;19.054;2022-10-31T12:45:56;27.92;;;13.93;;
75890;SDS011;64571;47.512;19.054;2022-10-31T12:55:59;29.35;;;15.60;;
75890;SDS011;64571;47.512;19.054;2022-10-31T12:59:39;32.60;;;15.05;;
75890;SDS011;64571;47.512;19.054;2022-10-31T13:02:44;31.17;;;15.10;;
75890;SDS011;64571;47.512;19.054;2022-10-31T13:06:09;30.00;;;15.13;;
75890;SDS011;64571;47.512;19.054;2022-10-31T13:09:17;32.07;;;15.20;;
75890;SDS011;64571;47.512;19.054;2022-10-31T13:12:31;34.40;;;15.10;;
75890;SDS011;64571;47.512;19.054;2022-10-31T13:15:48;36.65;;;16.30;;
75890;SDS011;64571;47.512;19.054;2022-10-31T13:19:41;31.75;;;15.95;;
75890;SDS011;64571;47.512;19.054;2022-10-31T13:22:24;28.55;;;14.85;;
75890;SDS011;64571;47.512;19.054;2022-10-31T13:25:31;29.47;;;14.90;;
75890;SDS011;64571;47.512;19.054;2022-10-31T13:31:46;29.42;;;14.82;;
75890;SDS011;64571;47.512;19.054;2022-10-31T13:34:53;30.48;;;15.48;;
75890;SDS011;64571;47.512;19.054;2022-10-31T13:44:24;26.48;;;14.27;;
75890;SDS011;64571;47.512;19.054;2022-10-31T13:47:29;29.27;;;14.50;;
75890;SDS011;64571;47.512;19.054;2022-10-31T13:50:32;29.08;;;14.45;;
75890;SDS011;64571;47.512;19.054;2022-10-31T13:56:40;32.50;;;14.30;;
75890;SDS011;64571;47.512;19.054;2022-10-31T13:59:46;28.50;;;13.93;;
75890;SDS011;64571;47.512;19.054;2022-10-31T14:02:53;28.50;;;14.40;;
75890;SDS011;64571;47.512;19.054;2022-10-31T14:05:58;31.08;;;14.63;;
75890;SDS011;64571;47.512;19.054;2022-10-31T14:09:01;30.48;;;14.15;;
75890;SDS011;64571;47.512;19.054;2022-10-31T14:12:06;27.57;;;13.73;;
75890;SDS011;64571;47.512;19.054;2022-10-31T14:15:15;26.80;;;13.70;;
75890;SDS011;64571;47.512;19.054;2022-10-31T14:18:25;29.63;;;13.52;;
75890;SDS011;64571;47.512;19.054;2022-10-31T14:21:43;31.42;;;14.68;;
75890;SDS011;64571;47.512;19.054;2022-10-31T14:24:48;26.85;;;13.77;;
75890;SDS011;64571;47.512;19.054;2022-10-31T14:27:51;30.27;;;13.90;;
75890;SDS011;64571;47.512;19.054;2022-10-31T14:30:56;29.15;;;14.40;;
75890;SDS011;64571;47.512;19.054;2022-10-31T14:34:00;29.00;;;13.98;;
75890;SDS011;64571;47.512;19.054;2022-10-31T14:41:03;28.87;;;14.95;;
75890;SDS011;64571;47.512;19.054;2022-10-31T14:44:10;26.00;;;15.00;;
75890;SDS011;64571;47.512;19.054;2022-10-31T14:47:38;29.42;;;14.98;;
75890;SDS011;64571;47.512;19.054;2022-10-31T14:51:10;28.52;;;15.40;;
75890;SDS011;64571;47.512;19.054;2022-10-31T14:54:27;31.15;;;16.17;;
75890;SDS011;64571;47.512;19.054;2022-10-31T14:57:34;32.17;;;15.02;;
75890;SDS011;64571;47.512;19.054;2022-10-31T15:00:40;33.80;;;16.97;;
75890;SDS011;64571;47.512;19.054;2022-10-31T15:03:45;31.27;;;15.07;;
75890;SDS011;64571;47.512;19.054;2022-10-31T15:07:47;31.10;;;15.73;;
75890;SDS011;64571;47.512;19.054;2022-10-31T15:10:44;34.35;;;16.87;;
75890;SDS011;64571;47.512;19.054;2022-10-31T15:13:48;31.45;;;15.98;;
75890;SDS011;64571;47.512;19.054;2022-10-31T15:16:52;30.83;;;16.00;;
75890;SDS011;64571;47.512;19.054;2022-10-31T15:19:55;32.85;;;15.20;;
75890;SDS011;64571;47.512;19.054;2022-10-31T15:22:59;28.50;;;15.48;;
75890;SDS011;64571;47.512;19.054;2022-10-31T15:26:05;31.62;;;15.77;;
75890;SDS011;64571;47.512;19.054;2022-10-31T15:29:13;28.73;;;15.57;;
75890;SDS011;64571;47.512;19.054;2022-10-31T15:32:18;31.90;;;15.27;;
75890;SDS011;64571;47.512;19.054;2022-10-31T15:35:26;27.13;;;13.30;;
75890;SDS011;64571;47.512;19.054;2022-10-31T15:38:30;29.55;;;14.32;;
75890;SDS011;64571;47.512;19.054;2022-10-31T15:41:55;29.08;;;13.40;;
75890;SDS011;64571;47.512;19.054;2022-10-31T15:45:02;32.00;;;13.95;;
75890;SDS011;64571;47.512;19.054;2022-10-31T15:48:18;31.43;;;15.10;;
75890;SDS011;64571;47.512;19.054;2022-10-31T15:51:27;29.33;;;14.23;;
75890;SDS011;64571;47.512;19.054;2022-10-31T15:54:33;30.98;;;14.60;;
75890;SDS011;64571;47.512;19.054;2022-10-31T15:57:40;33.78;;;15.05;;
75890;SDS011;64571;47.512;19.054;2022-10-31T16:00:56;31.50;;;14.80;;
75890;SDS011;64571;47.512;19.054;2022-10-31T16:04:05;31.23;;;14.70;;
75890;SDS011;64571;47.512;19.054;2022-10-31T16:07:22;30.65;;;14.77;;
75890;SDS011;64571;47.512;19.054;2022-10-31T16:10:25;35.20;;;16.77;;
75890;SDS011;64571;47.512;19.054;2022-10-31T16:13:30;31.58;;;15.57;;
75890;SDS011;64571;47.512;19.054;2022-10-31T16:16:46;30.10;;;15.55;;
75890;SDS011;64571;47.512;19.054;2022-10-31T16:19:58;31.83;;;14.87;;
75890;SDS011;64571;47.512;19.054;2022-10-31T16:23:03;26.37;;;14.48;;
75890;SDS011;64571;47.512;19.054;2022-10-31T16:26:05;29.55;;;15.73;;
75890;SDS011;64571;47.512;19.054;2022-10-31T16:29:23;31.75;;;15.75;;
75890;SDS011;64571;47.512;19.054;2022-10-31T16:32:35;29.67;;;15.30;;
75890;SDS011;64571;47.512;19.054;2022-10-31T16:35:58;29.87;;;15.27;;
75890;SDS011;64571;47.512;19.054;2022-10-31T16:39:21;35.10;;;16.75;;
75890;SDS011;64571;47.512;19.054;2022-10-31T16:42:24;35.53;;;15.82;;
75890;SDS011;64571;47.512;19.054;2022-10-31T16:45:28;36.35;;;17.62;;
75890;SDS011;64571;47.512;19.054;2022-10-31T16:48:32;35.92;;;17.85;;
75890;SDS011;64571;47.512;19.054;2022-10-31T16:51:35;38.13;;;16.00;;
75890;SDS011;64571;47.512;19.054;2022-10-31T16:54:37;35.40;;;16.02;;
75890;SDS011;64571;47.512;19.054;2022-10-31T16:57:42;43.87;;;18.35;;
75890;SDS011;64571;47.512;19.054;2022-10-31T17:00:47;40.72;;;16.62;;
75890;SDS011;64571;47.512;19.054;2022-10-31T17:03:50;38.22;;;15.40;;
75890;SDS011;64571;47.512;19.054;2022-10-31T17:06:52;36.43;;;15.77;;
75890;SDS011;64571;47.512;19.054;2022-10-31T17:09:54;38.20;;;16.33;;
75890;SDS011;64571;47.512;19.054;2022-10-31T17:12:57;36.92;;;14.15;;
75890;SDS011;64571;47.512;19.054;2022-10-31T17:16:02;33.78;;;15.63;;
75890;SDS011;64571;47.512;19.054;2022-10-31T17:19:07;34.25;;;16.65;;
75890;SDS011;64571;47.512;19.054;2022-10-31T17:22:11;32.73;;;16.23;;
75890;SDS011;64571;47.512;19.054;2022-10-31T17:25:16;31.30;;;14.63;;
75890;SDS011;64571;47.512;19.054;2022-10-31T17:28:21;36.35;;;17.67;;
75890;SDS011;64571;47.512;19.054;2022-10-31T17:31:27;36.72;;;15.77;;
75890;SDS011;64571;47.512;19.054;2022-10-31T17:34:31;33.58;;;16.25;;
75890;SDS011;64571;47.512;19.054;2022-10-31T17:37:34;35.90;;;15.87;;
75890;SDS011;64571;47.512;19.054;2022-10-31T17:40:37;30.05;;;12.88;;
75890;SDS011;64571;47.512;19.054;2022-10-31T17:43:41;30.35;;;13.00;;
75890;SDS011;64571;47.512;19.054;2022-10-31T17:46:43;28.42;;;13.95;;
75890;SDS011;64571;47.512;19.054;2022-10-31T17:49:46;27.30;;;12.05;;
75890;SDS011;64571;47.512;19.054;2022-10-31T17:52:48;42.10;;;23.47;;
75890;SDS011;64571;47.512;19.054;2022-10-31T17:55:51;30.08;;;15.77;;
75890;SDS011;64571;47.512;19.054;2022-10-31T17:58:54;32.83;;;15.93;;
75890;SDS011;64571;47.512;19.054;2022-10-31T18:01:59;31.98;;;13.90;;
75890;SDS011;64571;47.512;19.054;2022-10-31T18:05:03;34.42;;;17.55;;
75890;SDS011;64571;47.512;19.054;2022-10-31T18:08:06;42.93;;;23.53;;
75890;SDS011;64571;47.512;19.054;2022-10-31T18:11:10;33.85;;;15.57;;
75890;SDS011;64571;47.512;19.054;2022-10-31T18:14:15;33.63;;;14.77;;
75890;SDS011;64571;47.512;19.054;2022-10-31T18:17:18;29.60;;;13.95;;
75890;SDS011;64571;47.512;19.054;2022-10-31T18:20:21;33.35;;;16.75;;
75890;SDS011;64571;47.512;19.054;2022-10-31T18:23:24;49.57;;;26.30;;
75890;SDS011;64571;47.512;19.054;2022-10-31T18:26:26;36.78;;;21.37;;
75890;SDS011;64571;47.512;19.054;2022-10-31T18:29:29;27.90;;;13.32;;
75890;SDS011;64571;47.512;19.054;2022-10-31T18:32:31;27.48;;;13.05;;
75890;SDS011;64571;47.512;19.054;2022-10-31T18:35:35;38.03;;;21.00;;
75890;SDS011;64571;47.512;19.054;2022-10-31T18:38:40;38.23;;;18.77;;
75890;SDS011;64571;47.512;19.054;2022-10-31T18:41:43;47.47;;;24.12;;
75890;SDS011;64571;47.512;19.054;2022-10-31T18:44:46;41.85;;;19.85;;
75890;SDS011;64571;47.512;19.054;2022-10-31T18:47:52;37.92;;;15.55;;
75890;SDS011;64571;47.512;19.054;2022-10-31T18:50:54;34.88;;;15.20;;
75890;SDS011;64571;47.512;19.054;2022-10-31T18:53:59;50.70;;;27.50;;
75890;SDS011;64571;47.512;19.054;2022-10-31T18:57:02;35.08;;;15.70;;
75890;SDS011;64571;47.512;19.054;2022-10-31T19:00:05;37.78;;;15.65;;
75890;SDS011;64571;47.512;19.054;2022-10-31T19:03:08;34.65;;;14.80;;
75890;SDS011;64571;47.512;19.054;2022-10-31T19:06:10;37.05;;;15.60;;
75890;SDS011;64571;47.512;19.054;2022-10-31T19:09:13;36.07;;;15.37;;
75890;SDS011;64571;47.512;19.054;2022-10-31T19:12:15;33.78;;;14.65;;
75890;SDS011;64571;47.512;19.054;2022-10-31T19:15:18;35.13;;;14.43;;
75890;SDS011;64571;47.512;19.054;2022-10-31T19:18:20;39.70;;;16.77;;
75890;SDS011;64571;47.512;19.054;2022-10-31T19:21:23;42.72;;;16.55;;
75890;SDS011;64571;47.512;19.054;2022-10-31T19:24:26;34.47;;;15.20;;
75890;SDS011;64571;47.512;19.054;2022-10-31T19:27:28;41.90;;;16.05;;
75890;SDS011;64571;47.512;19.054;2022-10-31T19:30:31;42.38;;;17.00;;
75890;SDS011;64571;47.512;19.054;2022-10-31T19:33:33;39.38;;;16.12;;
75890;SDS011;64571;47.512;19.054;2022-10-31T19:36:37;33.10;;;14.80;;